PKWA/KWA METAR and TAF weather

Enter ICAO airport designator
Station Type Date Time Source
PKWA METAR 2019/08/25 07:00 UTC NOAA

PKWA 250700Z AUTO 08009KT 10SM SCT020 29/25 A2981 RMK AO2 T02940254


Station Type Date Time Source
PKWA Decoded METAR 2019/08/25 07:00 UTC NOAA

Station name not available
Aug 25, 2019 - 03:00 AM EDT / 2019.08.25 0700 UTC
Wind: from the E (080 degrees) at 10 MPH (9 KT):0
Visibility: 10 mile(s):0
Sky conditions: partly cloudy
Temperature: 84.9 F (29.4 C)
Dew Point: 77.7 F (25.4 C)
Relative Humidity: 79%
Pressure (altimeter): 29.81 in. Hg (1009 hPa)
ob: PKWA 250700Z AUTO 08009KT 10SM SCT020 29/25 A2981 RMK AO2 T02940254
cycle: 7

Station Type Date Time Source
PKWA TAF 2019/08/25 06:42 UTC NOAA

TAF COR PKWA 250629Z 2506/2606 10007KT P6SM VCSH SCT020 SCT120

Example: see airport list